Terminal Aerodrome Forecast
Issued by NWS San Angelo, TX

Home | Current Version | Previous Version | Text Only | Print | Product List | Glossary On
Versions: 1 2 3 4 5 6 7 8 9 10 11 12 13 14 15 16 17 18
000
FTUS44 KSJT 280523
TAFSJT
TAF
KSJT 280523Z 2806/2906 18012G18KT P6SM SKC
     FM281200 02011KT P6SM OVC060
     FM282100 04015G22KT P6SM OVC060
     FM290200 04010KT P6SM OVC050 PROB30 2902/2904 P6SM TS BKN050CB=

USA.gov is the U.S. government's official web portal to all federal, state and local government web resources and services.